Dragocidental — CSYN4 — position and weather

sailwx.info

Track history (hours):
 
Tides and Currents Weather Stations Pressure Air Temp Water Temp Dewpoint Dewpoint Depression Visibility Wind Speed Wind Dir Waves Ship Positions

Dragocidental

Last reported at 2016-Aug-29 17:32 UTC. Time now 2016-Aug-29 18:05 UTC.
Position N 37°44' W 025°40'.

Length 30 m.

Type: Dredging. MMSI: 204671360.

Date/timePositionNaut miles runAvg speedWind from/ knotsBaromVisibWave heightAir tempDewpointWater temp
2016-Aug-29 17:32N 37°44' W 025°40'2 2.4
2016-Aug-29 16:33N 37°44' W 025°43'5 5.1
2016-Aug-29 15:32N 37°48' W 025°48'0 0.0
2016-Aug-29 14:32N 37°48' W 025°48'0 0.0
2016-Aug-29 13:32N 37°48' W 025°48'4 3.9
2016-Aug-29 12:33N 37°45' W 025°44'4 3.5
2016-Aug-29 11:33N 37°44' W 025°40'0 0.0
2016-Aug-29 10:33N 37°44' W 025°40'0 0.0
2016-Aug-29 09:33N 37°44' W 025°40'0 0.0
2016-Aug-29 08:33N 37°44' W 025°40'0 0.0
2016-Aug-29 07:33N 37°44' W 025°40'0 0.0
2016-Aug-29 06:33N 37°44' W 025°40'0 0.0
2016-Aug-29 05:33N 37°44' W 025°40'0 0.0
2016-Aug-29 04:33N 37°44' W 025°40'0 0.0
2016-Aug-29 03:34N 37°44' W 025°40'0 0.0
2016-Aug-29 02:33N 37°44' W 025°40'0 0.0
2016-Aug-29 01:34N 37°44' W 025°40'0 0.0
2016-Aug-29 00:34N 37°44' W 025°40'0 0.0
2016-Aug-28 23:34N 37°44' W 025°40'0 0.0
2016-Aug-28 22:34N 37°44' W 025°40'0 0.0
2016-Aug-28 21:31N 37°44' W 025°40'0 0.0
2016-Aug-28 20:31N 37°44' W 025°40'0 0.0
2016-Aug-28 19:31N 37°44' W 025°40'0 0.0
2016-Aug-28 18:31N 37°44' W 025°40'0 0.0
2016-Aug-28 17:31N 37°44' W 025°40'0 0.0
2016-Aug-28 16:31N 37°44' W 025°40'0 0.0
2016-Aug-28 15:31N 37°44' W 025°40'0 0.0
2016-Aug-28 14:31N 37°44' W 025°40'0 0.0
2016-Aug-28 13:31N 37°44' W 025°40'0 0.0
2016-Aug-28 12:31N 37°44' W 025°40'0 0.0
2016-Aug-28 11:31N 37°44' W 025°40'0 0.0
2016-Aug-28 10:31N 37°44' W 025°40'0 0.0
2016-Aug-28 09:31N 37°44' W 025°40'0 0.0
2016-Aug-28 08:31N 37°44' W 025°40'0 0.0
2016-Aug-28 07:31N 37°44' W 025°40'0 0.0
2016-Aug-28 06:31N 37°44' W 025°40'0 0.0
2016-Aug-28 05:31N 37°44' W 025°40'0 0.0
2016-Aug-28 04:31N 37°44' W 025°40'0 0.0
2016-Aug-28 03:31N 37°44' W 025°40'0 0.0
2016-Aug-28 02:31N 37°44' W 025°40'0 0.0
2016-Aug-28 01:31N 37°44' W 025°40'0 0.0
2016-Aug-28 00:31N 37°44' W 025°40'0 0.0
2016-Aug-27 23:31N 37°44' W 025°40'0 0.0
2016-Aug-27 22:31N 37°44' W 025°40'0 0.0
2016-Aug-27 21:31N 37°44' W 025°40'0 0.0
2016-Aug-27 20:31N 37°44' W 025°40'0 0.0
2016-Aug-27 19:31N 37°44' W 025°40'0 0.0
2016-Aug-27 18:31N 37°44' W 025°40'0 0.0
2016-Aug-27 17:31N 37°44' W 025°40'0 0.0
2016-Aug-27 16:31N 37°44' W 025°40'0 0.0
2016-Aug-27 15:31N 37°44' W 025°40'0 0.0
2016-Aug-27 14:31N 37°44' W 025°40'0 0.0
2016-Aug-27 13:31N 37°44' W 025°40'0 0.0
2016-Aug-27 12:31N 37°44' W 025°40'0 0.0
2016-Aug-27 11:31N 37°44' W 025°40'0 0.0
2016-Aug-27 10:31N 37°44' W 025°40'0 0.0
2016-Aug-27 09:31N 37°44' W 025°40'0 0.0
2016-Aug-27 08:31N 37°44' W 025°40'0 0.0
2016-Aug-27 07:31N 37°44' W 025°40'0 0.0
2016-Aug-27 06:31N 37°44' W 025°40'0 0.0
2016-Aug-27 04:31N 37°44' W 025°40'0 0.0
2016-Aug-27 03:31N 37°44' W 025°40'0 0.0
2016-Aug-27 02:31N 37°44' W 025°40'0 0.0
2016-Aug-27 01:31N 37°44' W 025°40'0 0.0
2016-Aug-27 00:31N 37°44' W 025°40'0 0.0
2016-Aug-26 23:31N 37°44' W 025°40'0 0.0
2016-Aug-26 22:31N 37°44' W 025°40'0 0.0
2016-Aug-26 21:31N 37°44' W 025°40'0 0.0
2016-Aug-26 20:31N 37°44' W 025°40'0 0.0
2016-Aug-26 19:28N 37°44' W 025°40'0 0.0
2016-Aug-26 18:31N 37°44' W 025°40'0 0.0
2016-Aug-26 17:31N 37°44' W 025°40'0 0.0
2016-Aug-26 16:31N 37°44' W 025°40'0 0.0
2016-Aug-26 15:31N 37°44' W 025°40'0 0.0
2016-Aug-26 14:28N 37°44' W 025°40'2 2.0
2016-Aug-26 13:34N 37°44' W 025°42'6 5.6
2016-Aug-26 12:33N 37°48' W 025°47'0 0.2
2016-Aug-26 11:31N 37°48' W 025°48'0 0.0
2016-Aug-26 10:31N 37°48' W 025°48'4 4.0
2016-Aug-26 09:33N 37°45' W 025°44'3 3.5
2016-Aug-26 08:33N 37°44' W 025°40'  
Track history (hours):
 
Tides and Currents Weather Stations Pressure Air Temp Water Temp Dewpoint Dewpoint Depression Visibility Wind Speed Wind Dir Waves Ship Positions

Dragocidental

Last reported at 2016-Aug-29 17:32 UTC. Time now 2016-Aug-29 18:05 UTC.
Position N 37°44' W 025°40'.

Length 30 m.

Type: Dredging. MMSI: 204671360.

Date/timePositionNaut miles runAvg speedWind from/ knotsBaromVisibWave heightAir tempDewpointWater temp
2016-Aug-29 17:32N 37°44' W 025°40'2 2.4
2016-Aug-29 16:33N 37°44' W 025°43'5 5.1
2016-Aug-29 15:32N 37°48' W 025°48'0 0.0
2016-Aug-29 14:32N 37°48' W 025°48'0 0.0
2016-Aug-29 13:32N 37°48' W 025°48'4 3.9
2016-Aug-29 12:33N 37°45' W 025°44'4 3.5
2016-Aug-29 11:33N 37°44' W 025°40'0 0.0
2016-Aug-29 10:33N 37°44' W 025°40'0 0.0
2016-Aug-29 09:33N 37°44' W 025°40'0 0.0
2016-Aug-29 08:33N 37°44' W 025°40'0 0.0
2016-Aug-29 07:33N 37°44' W 025°40'0 0.0
2016-Aug-29 06:33N 37°44' W 025°40'0 0.0
2016-Aug-29 05:33N 37°44' W 025°40'0 0.0
2016-Aug-29 04:33N 37°44' W 025°40'0 0.0
2016-Aug-29 03:34N 37°44' W 025°40'0 0.0
2016-Aug-29 02:33N 37°44' W 025°40'0 0.0
2016-Aug-29 01:34N 37°44' W 025°40'0 0.0
2016-Aug-29 00:34N 37°44' W 025°40'0 0.0
2016-Aug-28 23:34N 37°44' W 025°40'0 0.0
2016-Aug-28 22:34N 37°44' W 025°40'0 0.0
2016-Aug-28 21:31N 37°44' W 025°40'0 0.0
2016-Aug-28 20:31N 37°44' W 025°40'0 0.0
2016-Aug-28 19:31N 37°44' W 025°40'0 0.0
2016-Aug-28 18:31N 37°44' W 025°40'0 0.0
2016-Aug-28 17:31N 37°44' W 025°40'0 0.0
2016-Aug-28 16:31N 37°44' W 025°40'0 0.0
2016-Aug-28 15:31N 37°44' W 025°40'0 0.0
2016-Aug-28 14:31N 37°44' W 025°40'0 0.0
2016-Aug-28 13:31N 37°44' W 025°40'0 0.0
2016-Aug-28 12:31N 37°44' W 025°40'0 0.0
2016-Aug-28 11:31N 37°44' W 025°40'0 0.0
2016-Aug-28 10:31N 37°44' W 025°40'0 0.0
2016-Aug-28 09:31N 37°44' W 025°40'0 0.0
2016-Aug-28 08:31N 37°44' W 025°40'0 0.0
2016-Aug-28 07:31N 37°44' W 025°40'0 0.0
2016-Aug-28 06:31N 37°44' W 025°40'0 0.0
2016-Aug-28 05:31N 37°44' W 025°40'0 0.0
2016-Aug-28 04:31N 37°44' W 025°40'0 0.0
2016-Aug-28 03:31N 37°44' W 025°40'0 0.0
2016-Aug-28 02:31N 37°44' W 025°40'0 0.0
2016-Aug-28 01:31N 37°44' W 025°40'0 0.0
2016-Aug-28 00:31N 37°44' W 025°40'0 0.0
2016-Aug-27 23:31N 37°44' W 025°40'0 0.0
2016-Aug-27 22:31N 37°44' W 025°40'0 0.0
2016-Aug-27 21:31N 37°44' W 025°40'0 0.0
2016-Aug-27 20:31N 37°44' W 025°40'0 0.0
2016-Aug-27 19:31N 37°44' W 025°40'0 0.0
2016-Aug-27 18:31N 37°44' W 025°40'0 0.0
2016-Aug-27 17:31N 37°44' W 025°40'0 0.0
2016-Aug-27 16:31N 37°44' W 025°40'0 0.0
2016-Aug-27 15:31N 37°44' W 025°40'0 0.0
2016-Aug-27 14:31N 37°44' W 025°40'0 0.0
2016-Aug-27 13:31N 37°44' W 025°40'0 0.0
2016-Aug-27 12:31N 37°44' W 025°40'0 0.0
2016-Aug-27 11:31N 37°44' W 025°40'0 0.0
2016-Aug-27 10:31N 37°44' W 025°40'0 0.0
2016-Aug-27 09:31N 37°44' W 025°40'0 0.0
2016-Aug-27 08:31N 37°44' W 025°40'0 0.0
2016-Aug-27 07:31N 37°44' W 025°40'0 0.0
2016-Aug-27 06:31N 37°44' W 025°40'0 0.0
2016-Aug-27 04:31N 37°44' W 025°40'0 0.0
2016-Aug-27 03:31N 37°44' W 025°40'0 0.0
2016-Aug-27 02:31N 37°44' W 025°40'0 0.0
2016-Aug-27 01:31N 37°44' W 025°40'0 0.0
2016-Aug-27 00:31N 37°44' W 025°40'0 0.0
2016-Aug-26 23:31N 37°44' W 025°40'0 0.0
2016-Aug-26 22:31N 37°44' W 025°40'0 0.0
2016-Aug-26 21:31N 37°44' W 025°40'0 0.0
2016-Aug-26 20:31N 37°44' W 025°40'0 0.0
2016-Aug-26 19:28N 37°44' W 025°40'0 0.0
2016-Aug-26 18:31N 37°44' W 025°40'0 0.0
2016-Aug-26 17:31N 37°44' W 025°40'0 0.0
2016-Aug-26 16:31N 37°44' W 025°40'0 0.0
2016-Aug-26 15:31N 37°44' W 025°40'0 0.0
2016-Aug-26 14:28N 37°44' W 025°40'2 2.0
2016-Aug-26 13:34N 37°44' W 025°42'6 5.6
2016-Aug-26 12:33N 37°48' W 025°47'0 0.2
2016-Aug-26 11:31N 37°48' W 025°48'0 0.0
2016-Aug-26 10:31N 37°48' W 025°48'4 4.0
2016-Aug-26 09:33N 37°45' W 025°44'3 3.5
2016-Aug-26 08:33N 37°44' W 025°40'  

Dump ship's entire track history